createdAt,value
2023-05-14T00:01:33.738Z,24.27
2023-05-14T00:04:16.054Z,24.25
2023-05-14T00:06:58.988Z,24.38
2023-05-14T00:09:41.216Z,25.08
2023-05-14T00:12:24.856Z,24.35
2023-05-14T00:15:07.905Z,24.05
2023-05-14T00:17:50.576Z,23.20
2023-05-14T00:20:32.810Z,23.90
2023-05-14T00:23:15.554Z,23.95
2023-05-14T00:25:57.681Z,23.63
2023-05-14T00:28:40.099Z,23.75
2023-05-14T00:31:22.296Z,23.70
2023-05-14T00:34:04.810Z,24.05
2023-05-14T00:36:47.340Z,23.83
2023-05-14T00:39:29.844Z,22.35
2023-05-14T00:42:12.007Z,22.67
2023-05-14T00:44:54.563Z,23.60
2023-05-14T00:47:39.310Z,23.25
2023-05-14T00:50:22.517Z,24.08
2023-05-14T00:53:10.203Z,22.70
2023-05-14T00:55:53.188Z,22.58
2023-05-14T00:58:35.421Z,24.13
2023-05-14T01:01:18.749Z,22.85
2023-05-14T01:04:01.489Z,22.70
2023-05-14T01:07:06.106Z,22.60
2023-05-14T01:10:13.729Z,22.85
2023-05-14T01:13:21.023Z,24.35
2023-05-14T01:16:04.276Z,23.27
2023-05-14T01:18:48.372Z,23.85
2023-05-14T01:21:38.926Z,22.92
2023-05-14T01:24:21.888Z,24.65
2023-05-14T01:27:26.592Z,24.58
2023-05-14T01:30:15.216Z,23.33
2023-05-14T01:33:00.671Z,24.10
2023-05-14T01:35:44.357Z,24.20
2023-05-14T01:38:30.834Z,23.38
2023-05-14T01:41:14.544Z,23.63
2023-05-14T01:43:57.284Z,24.05
2023-05-14T01:46:39.933Z,24.67
2023-05-14T01:49:22.764Z,26.98
2023-05-14T01:52:05.729Z,30.92
2023-05-14T01:54:50.789Z,27.92
2023-05-14T01:57:33.363Z,25.40
2023-05-14T02:00:15.881Z,26.67
2023-05-14T02:02:58.305Z,24.40
2023-05-14T02:05:40.504Z,23.92
2023-05-14T02:08:23.424Z,25.42
2023-05-14T02:11:05.824Z,24.30
2023-05-14T02:13:48.383Z,25.83
2023-05-14T02:16:30.635Z,23.95
2023-05-14T02:19:15.423Z,23.67
2023-05-14T02:21:59.574Z,23.42
2023-05-14T02:24:42.969Z,24.17
2023-05-14T02:27:25.137Z,25.17
2023-05-14T02:30:09.050Z,24.20
2023-05-14T02:32:51.891Z,25.33
2023-05-14T02:35:34.441Z,25.08
2023-05-14T02:38:16.694Z,24.48
2023-05-14T02:40:59.382Z,24.30
2023-05-14T02:43:41.632Z,23.80
2023-05-14T02:46:24.242Z,24.67
2023-05-14T02:49:06.435Z,24.20
2023-05-14T02:51:48.952Z,24.40
2023-05-14T02:54:31.254Z,24.25
2023-05-14T02:57:13.873Z,25.38
2023-05-14T02:59:56.103Z,24.13
2023-05-14T03:02:39.183Z,24.23
2023-05-14T03:05:22.180Z,24.10
2023-05-14T03:08:04.910Z,23.85
2023-05-14T03:10:47.122Z,24.73
2023-05-14T03:13:30.125Z,23.80
2023-05-14T03:16:12.825Z,24.83
2023-05-14T03:18:55.365Z,24.60
2023-05-14T03:21:37.769Z,24.83
2023-05-14T03:24:20.312Z,28.38
2023-05-14T03:27:02.475Z,42.90
2023-05-14T03:29:45.017Z,28.83
2023-05-14T03:32:27.296Z,28.27
2023-05-14T03:35:10.057Z,26.60
2023-05-14T03:37:53.110Z,25.75
2023-05-14T03:40:35.579Z,25.83
2023-05-14T03:43:17.765Z,25.38
2023-05-14T03:46:00.320Z,24.38
2023-05-14T03:48:42.839Z,23.83
2023-05-14T03:51:25.476Z,23.77
2023-05-14T03:54:07.981Z,23.40
2023-05-14T03:56:50.520Z,23.45
2023-05-14T03:59:32.839Z,21.88
2023-05-14T04:02:15.663Z,22.85
2023-05-14T04:04:57.827Z,23.20
2023-05-14T04:07:40.677Z,22.40
2023-05-14T04:10:23.011Z,23.13
2023-05-14T04:13:06.006Z,23.05
2023-05-14T04:15:50.504Z,22.00
2023-05-14T04:18:35.595Z,22.02
2023-05-14T04:21:17.875Z,21.58
2023-05-14T04:24:00.386Z,22.30
2023-05-14T04:26:42.558Z,21.85
2023-05-14T04:29:25.034Z,22.17
2023-05-14T04:32:07.800Z,20.63
2023-05-14T04:34:50.437Z,22.65
2023-05-14T04:37:33.088Z,21.25
2023-05-14T04:40:16.854Z,21.92
2023-05-14T04:42:58.991Z,25.73
2023-05-14T04:45:41.469Z,20.70
2023-05-14T04:48:23.600Z,21.67
2023-05-14T04:51:07.216Z,20.88
2023-05-14T04:53:49.527Z,21.73
2023-05-14T04:56:32.043Z,20.48
2023-05-14T04:59:14.181Z,19.08
2023-05-14T05:01:57.012Z,19.88
2023-05-14T05:04:39.407Z,20.10
2023-05-14T05:07:21.846Z,21.35
2023-05-14T05:10:04.411Z,20.33
2023-05-14T05:12:46.932Z,19.63
2023-05-14T05:15:29.880Z,18.98
2023-05-14T05:18:12.493Z,20.35
2023-05-14T05:20:54.656Z,20.73
2023-05-14T05:23:37.187Z,20.08
2023-05-14T05:26:19.342Z,19.83
2023-05-14T05:29:01.990Z,18.55
2023-05-14T05:31:44.268Z,17.85
2023-05-14T05:34:27.030Z,15.45
2023-05-14T05:37:12.721Z,15.82
2023-05-14T05:39:55.804Z,14.60
2023-05-14T05:42:38.199Z,14.60
2023-05-14T05:45:20.671Z,14.80
2023-05-14T05:48:03.052Z,14.13
2023-05-14T05:50:49.222Z,14.60
2023-05-14T05:53:31.307Z,14.05
2023-05-14T05:56:13.756Z,12.82
2023-05-14T05:58:56.275Z,12.68
2023-05-14T06:01:40.771Z,12.70
2023-05-14T06:04:23.811Z,12.65
2023-05-14T06:07:06.377Z,11.65
2023-05-14T06:09:49.128Z,11.65
2023-05-14T06:12:31.598Z,10.30
2023-05-14T06:15:14.632Z,10.13
2023-05-14T06:17:57.712Z,9.23
2023-05-14T06:20:41.469Z,8.07
2023-05-14T06:23:24.216Z,8.52
2023-05-14T06:26:07.019Z,8.80
2023-05-14T06:28:49.864Z,8.15
2023-05-14T06:31:32.294Z,8.40
2023-05-14T06:34:15.372Z,7.78
2023-05-14T06:36:57.948Z,7.97
2023-05-14T06:39:40.633Z,7.50
2023-05-14T06:42:22.896Z,7.00
2023-05-14T06:45:06.447Z,7.40
2023-05-14T06:47:49.056Z,8.13
2023-05-14T06:50:31.561Z,8.07
2023-05-14T06:53:14.425Z,6.72
2023-05-14T06:55:57.083Z,7.28
2023-05-14T06:58:39.321Z,6.38
2023-05-14T07:01:21.910Z,6.60
2023-05-14T07:04:04.329Z,6.35
2023-05-14T07:06:47.045Z,5.93
2023-05-14T07:09:29.297Z,5.45
2023-05-14T07:12:11.772Z,5.60
2023-05-14T07:14:54.051Z,5.15
2023-05-14T07:17:37.818Z,5.30
2023-05-14T07:20:20.222Z,5.40
2023-05-14T07:23:02.813Z,5.70
2023-05-14T07:25:45.158Z,4.55
2023-05-14T07:28:27.795Z,4.97
2023-05-14T07:31:10.161Z,4.90
2023-05-14T07:33:52.771Z,4.13
2023-05-14T07:36:35.056Z,3.65
2023-05-14T07:39:17.665Z,3.88
2023-05-14T07:42:01.079Z,3.63
2023-05-14T07:44:43.826Z,3.40
2023-05-14T07:47:26.110Z,3.85
2023-05-14T07:50:09.607Z,3.80
2023-05-14T07:52:51.977Z,3.85
2023-05-14T07:55:34.601Z,4.10
2023-05-14T07:58:16.789Z,4.20
2023-05-14T08:01:01.408Z,4.38
2023-05-14T08:03:44.713Z,5.18
2023-05-14T08:06:28.584Z,4.82
2023-05-14T08:09:11.157Z,5.00
2023-05-14T08:11:53.862Z,5.20
2023-05-14T08:14:36.222Z,4.78
2023-05-14T08:17:18.889Z,4.72
2023-05-14T08:20:01.620Z,4.60
2023-05-14T08:22:44.195Z,5.18
2023-05-14T08:25:26.360Z,4.47
2023-05-14T08:28:08.958Z,4.53
2023-05-14T08:30:51.662Z,4.55
2023-05-14T08:33:34.288Z,4.75
2023-05-14T08:36:16.513Z,5.13
2023-05-14T08:38:59.068Z,4.80
2023-05-14T08:41:41.415Z,4.88
2023-05-14T08:44:37.505Z,5.07
2023-05-14T08:47:22.274Z,3.90
2023-05-14T08:50:07.467Z,3.80
2023-05-14T08:52:49.772Z,4.57
2023-05-14T08:55:34.207Z,3.80
2023-05-14T08:58:16.928Z,3.45
2023-05-14T09:00:59.695Z,2.88
2023-05-14T09:03:42.641Z,2.53
2023-05-14T09:06:26.238Z,2.58
2023-05-14T09:09:10.163Z,2.40
2023-05-14T09:11:53.779Z,2.40
2023-05-14T09:14:35.987Z,2.60
2023-05-14T09:17:19.581Z,2.60
2023-05-14T09:20:01.991Z,2.58
2023-05-14T09:22:44.556Z,2.63
2023-05-14T09:25:28.548Z,2.30
2023-05-14T09:28:11.121Z,1.92
2023-05-14T09:30:53.356Z,2.03
2023-05-14T09:33:36.966Z,2.72
2023-05-14T09:36:20.132Z,4.22
2023-05-14T09:39:06.270Z,2.20
2023-05-14T09:44:32.020Z,2.03
2023-05-14T09:47:15.730Z,1.85
2023-05-14T09:49:58.484Z,2.20
2023-05-14T09:52:40.775Z,2.03
2023-05-14T09:55:23.442Z,2.05
2023-05-14T09:58:06.156Z,1.67
2023-05-14T10:00:49.295Z,2.05
2023-05-14T10:03:32.623Z,2.00
2023-05-14T10:06:19.189Z,1.77
2023-05-14T10:09:04.119Z,1.80
2023-05-14T10:11:52.851Z,2.05
2023-05-14T10:14:43.145Z,1.77
2023-05-14T10:17:29.781Z,1.80
2023-05-14T10:20:16.692Z,1.70
2023-05-14T10:22:59.430Z,1.60
2023-05-14T10:25:42.404Z,1.80
2023-05-14T10:28:25.445Z,1.63
2023-05-14T10:31:10.191Z,1.70
2023-05-14T10:33:54.444Z,1.80
2023-05-14T10:36:36.738Z,1.73
2023-05-14T10:39:19.249Z,1.52
2023-05-14T10:42:01.451Z,1.23
2023-05-14T10:44:58.206Z,1.80
2023-05-14T10:47:43.512Z,1.80
2023-05-14T10:50:27.366Z,1.70
2023-05-14T10:53:13.524Z,1.80
2023-05-14T10:55:56.478Z,1.42
2023-05-14T10:58:40.780Z,1.38
2023-05-14T11:01:24.474Z,1.67
2023-05-14T11:04:07.005Z,1.30
2023-05-14T11:06:51.897Z,1.75
2023-05-14T11:09:34.668Z,1.25
2023-05-14T11:12:19.672Z,2.00
2023-05-14T11:15:09.405Z,1.20
2023-05-14T11:17:53.626Z,1.20
2023-05-14T11:20:36.316Z,1.30
2023-05-14T11:23:18.767Z,1.20
2023-05-14T11:26:01.190Z,1.30
2023-05-14T11:28:44.955Z,1.20
2023-05-14T11:31:28.416Z,1.40
2023-05-14T11:34:12.415Z,1.23
2023-05-14T11:36:54.703Z,1.33
2023-05-14T11:39:37.744Z,1.20
2023-05-14T11:42:21.479Z,1.20
2023-05-14T11:45:07.082Z,1.15
2023-05-14T11:47:49.442Z,1.30
2023-05-14T11:50:36.652Z,1.20
2023-05-14T11:53:26.951Z,1.60
2023-05-14T11:56:09.896Z,1.83
2023-05-14T11:58:58.745Z,1.38
2023-05-14T12:01:41.472Z,1.00
2023-05-14T12:04:24.366Z,1.00
2023-05-14T12:07:12.944Z,0.93
2023-05-14T12:09:55.154Z,1.17
2023-05-14T12:12:39.171Z,1.08
2023-05-14T12:15:22.334Z,1.02
2023-05-14T12:18:22.909Z,1.20
2023-05-14T12:21:08.640Z,0.90
2023-05-14T12:23:59.213Z,0.98
2023-05-14T12:26:49.893Z,0.90
2023-05-14T12:29:37.630Z,1.13
2023-05-14T12:32:20.388Z,1.10
2023-05-14T12:35:03.535Z,1.00
2023-05-14T12:37:46.079Z,1.20
2023-05-14T12:40:29.105Z,1.00
2023-05-14T12:43:11.587Z,0.90
2023-05-14T12:45:54.332Z,0.90
2023-05-14T12:48:36.570Z,1.10
2023-05-14T12:51:19.282Z,1.27
2023-05-14T12:54:01.863Z,1.08
2023-05-14T12:56:44.574Z,1.10
2023-05-14T12:59:27.006Z,1.30
2023-05-14T13:02:09.773Z,0.90
2023-05-14T13:04:53.039Z,1.00
2023-05-14T13:07:36.164Z,1.02
2023-05-14T13:10:19.857Z,1.05
2023-05-14T13:13:04.737Z,1.00
2023-05-14T13:15:49.524Z,1.02
2023-05-14T13:18:32.269Z,1.00
2023-05-14T13:21:14.534Z,0.80
2023-05-14T13:23:57.198Z,1.05
2023-05-14T13:26:39.431Z,1.05
2023-05-14T13:29:22.024Z,0.80
2023-05-14T13:32:04.946Z,1.00
2023-05-14T13:34:47.785Z,1.25
2023-05-14T13:37:30.030Z,1.00
2023-05-14T13:40:12.948Z,1.17
2023-05-14T13:42:55.129Z,1.42
2023-05-14T13:45:37.575Z,1.00
2023-05-14T13:48:19.740Z,0.82
2023-05-14T13:51:02.213Z,0.98
2023-05-14T13:53:44.814Z,1.00
2023-05-14T13:56:27.273Z,1.10
2023-05-14T13:59:09.546Z,1.15
2023-05-14T14:01:52.101Z,0.90
2023-05-14T14:04:34.716Z,0.98
2023-05-14T14:07:17.304Z,1.00
2023-05-14T14:10:01.650Z,0.93
2023-05-14T14:12:44.382Z,1.38
2023-05-14T14:15:26.843Z,1.30
2023-05-14T14:18:09.426Z,1.17
2023-05-14T14:20:51.777Z,1.30
2023-05-14T14:23:34.354Z,1.20
2023-05-14T14:26:16.677Z,0.90
2023-05-14T14:28:59.386Z,1.27
2023-05-14T14:31:42.671Z,1.30
2023-05-14T14:34:25.645Z,1.25
2023-05-14T14:37:07.914Z,1.48
2023-05-14T14:39:50.801Z,1.40
2023-05-14T14:42:34.940Z,1.52
2023-05-14T14:45:17.784Z,1.23
2023-05-14T14:48:22.296Z,1.40
2023-05-14T14:51:06.372Z,1.50
2023-05-14T14:53:48.553Z,1.17
2023-05-14T14:56:31.611Z,1.30
2023-05-14T14:59:13.863Z,1.38
2023-05-14T15:01:56.592Z,1.40
2023-05-14T15:04:39.014Z,1.45
2023-05-14T15:07:22.277Z,1.40
2023-05-14T15:10:05.176Z,1.40
2023-05-14T15:12:48.379Z,1.45
2023-05-14T15:15:31.871Z,1.40
2023-05-14T15:18:14.677Z,1.70
2023-05-14T15:20:57.147Z,1.50
2023-05-14T15:23:39.744Z,1.42
2023-05-14T15:26:23.882Z,1.20
2023-05-14T15:29:06.372Z,1.30
2023-05-14T15:31:48.576Z,1.20
2023-05-14T15:34:31.242Z,1.23
2023-05-14T15:37:13.575Z,1.40
2023-05-14T15:39:56.146Z,1.50
2023-05-14T15:42:40.018Z,1.70
2023-05-14T15:45:23.420Z,1.90
2023-05-14T15:48:06.075Z,1.92
2023-05-14T15:50:49.804Z,1.75
2023-05-14T15:53:32.284Z,2.17
2023-05-14T15:56:14.956Z,2.15
2023-05-14T15:58:57.407Z,1.60
2023-05-14T16:01:40.460Z,1.80
2023-05-14T16:04:22.939Z,2.05
2023-05-14T16:07:09.892Z,1.90
2023-05-14T16:09:52.247Z,1.90
2023-05-14T16:12:35.045Z,1.48
2023-05-14T16:15:17.422Z,1.40
2023-05-14T16:18:00.893Z,1.90
2023-05-14T16:20:43.339Z,2.00
2023-05-14T16:23:26.160Z,1.73
2023-05-14T16:26:08.500Z,2.28
2023-05-14T16:28:51.136Z,1.70
2023-05-14T16:31:34.592Z,2.03
2023-05-14T16:34:17.166Z,1.95
2023-05-14T16:36:59.901Z,2.20
2023-05-14T16:39:43.480Z,2.15
2023-05-14T16:42:26.350Z,2.30
2023-05-14T16:45:09.551Z,2.55
2023-05-14T16:47:51.820Z,1.88
2023-05-14T16:50:34.509Z,2.15
2023-05-14T16:53:17.085Z,2.20
2023-05-14T16:55:59.678Z,2.58
2023-05-14T16:58:42.345Z,3.10
2023-05-14T17:01:25.079Z,2.88
2023-05-14T17:04:08.269Z,2.58
2023-05-14T17:06:51.566Z,2.40
2023-05-14T17:09:34.063Z,2.20
2023-05-14T17:12:17.793Z,2.50
2023-05-14T17:15:02.988Z,2.53
2023-05-14T17:17:47.340Z,2.58
2023-05-14T17:20:30.845Z,2.08
2023-05-14T17:23:13.593Z,2.95
2023-05-14T17:25:58.640Z,2.30
2023-05-14T17:28:40.965Z,3.05
2023-05-14T17:31:24.127Z,2.50
2023-05-14T17:34:07.266Z,3.20
2023-05-14T17:36:49.887Z,2.60
2023-05-14T17:39:33.120Z,2.80
2023-05-14T17:42:16.266Z,2.55
2023-05-14T17:44:59.090Z,3.00
2023-05-14T17:47:41.648Z,2.42
2023-05-14T17:50:23.886Z,2.70
2023-05-14T17:53:06.932Z,2.83
2023-05-14T17:55:50.254Z,3.10
2023-05-14T17:58:32.890Z,2.60
2023-05-14T18:01:15.470Z,3.10
2023-05-14T18:03:58.276Z,3.42
2023-05-14T18:06:41.263Z,3.40
2023-05-14T18:09:23.807Z,4.03
2023-05-14T18:12:06.851Z,5.68
2023-05-14T18:14:49.626Z,6.93
2023-05-14T18:17:32.145Z,7.53
2023-05-14T18:20:14.847Z,7.82
2023-05-14T18:22:57.036Z,8.52
2023-05-14T18:25:39.600Z,7.82
2023-05-14T18:28:22.096Z,8.40
2023-05-14T18:31:04.614Z,9.15
2023-05-14T18:33:47.528Z,9.63
2023-05-14T18:36:30.464Z,9.23
2023-05-14T18:39:13.625Z,11.55
2023-05-14T18:41:56.733Z,10.77
2023-05-14T18:44:43.061Z,11.18
2023-05-14T18:47:25.760Z,9.40
2023-05-14T18:50:08.785Z,8.27
2023-05-14T18:52:51.589Z,7.38
2023-05-14T18:55:35.370Z,7.40
2023-05-14T18:58:18.016Z,7.45
2023-05-14T19:01:00.354Z,7.68
2023-05-14T19:03:43.129Z,7.00
2023-05-14T19:06:25.883Z,7.00
2023-05-14T19:09:09.521Z,6.90
2023-05-14T19:11:51.888Z,6.65
2023-05-14T19:14:34.543Z,8.98
2023-05-14T19:17:18.434Z,8.93
2023-05-14T19:20:02.470Z,10.57
2023-05-14T19:22:44.972Z,11.55
2023-05-14T19:25:29.334Z,10.93
2023-05-14T19:28:11.910Z,11.43
2023-05-14T19:30:55.150Z,11.80
2023-05-14T19:33:37.809Z,12.70
2023-05-14T19:36:21.878Z,12.80
2023-05-14T19:39:04.588Z,12.32
2023-05-14T19:41:47.233Z,12.35
2023-05-14T19:44:30.929Z,13.80
2023-05-14T19:47:13.643Z,13.40
2023-05-14T19:49:56.066Z,12.75
2023-05-14T19:52:38.898Z,12.23
2023-05-14T19:55:22.583Z,11.23
2023-05-14T19:58:05.648Z,10.40
2023-05-14T20:00:51.120Z,9.57
2023-05-14T20:03:33.827Z,7.45
2023-05-14T20:06:17.542Z,6.50
2023-05-14T20:09:03.054Z,6.53
2023-05-14T20:11:45.301Z,6.50
2023-05-14T20:14:27.808Z,6.22
2023-05-14T20:17:10.200Z,5.93
2023-05-14T20:19:52.738Z,5.43
2023-05-14T20:22:35.235Z,6.15
2023-05-14T20:25:17.697Z,6.00
2023-05-14T20:28:02.557Z,5.43
2023-05-14T20:30:45.095Z,5.45
2023-05-14T20:33:29.230Z,5.32
2023-05-14T20:36:11.865Z,5.25
2023-05-14T20:38:54.082Z,6.15
2023-05-14T20:41:38.088Z,5.72
2023-05-14T20:44:20.767Z,5.72
2023-05-14T20:47:03.507Z,5.55
2023-05-14T20:49:46.686Z,5.60
2023-05-14T20:52:29.374Z,5.57
2023-05-14T20:55:13.055Z,5.63
2023-05-14T20:57:55.908Z,6.30
2023-05-14T21:00:39.254Z,6.45
2023-05-14T21:03:21.863Z,6.20
2023-05-14T21:06:04.359Z,6.90
2023-05-14T21:08:46.781Z,8.65
2023-05-14T21:11:29.085Z,7.65
2023-05-14T21:14:11.660Z,7.72
2023-05-14T21:16:54.038Z,6.97
2023-05-14T21:19:36.511Z,6.70
2023-05-14T21:22:18.730Z,6.50
2023-05-14T21:25:01.178Z,6.00
2023-05-14T21:27:43.408Z,6.93
2023-05-14T21:30:25.861Z,6.45
2023-05-14T21:33:08.928Z,6.28
2023-05-14T21:35:51.507Z,5.22
2023-05-14T21:38:34.071Z,5.32
2023-05-14T21:41:16.762Z,5.00
2023-05-14T21:43:58.980Z,5.10
2023-05-14T21:46:41.667Z,4.93
2023-05-14T21:49:23.854Z,5.03
2023-05-14T21:52:06.539Z,5.07
2023-05-14T21:54:48.734Z,5.05
2023-05-14T21:57:34.293Z,4.40
2023-05-14T22:03:05.925Z,4.65
2023-05-14T22:05:49.273Z,5.20
2023-05-14T22:08:32.260Z,5.32
2023-05-14T22:11:14.508Z,5.15
2023-05-14T22:13:56.970Z,5.32
2023-05-14T22:16:39.221Z,4.80
2023-05-14T22:19:22.419Z,3.83
2023-05-14T22:22:04.827Z,3.70
2023-05-14T22:24:47.306Z,3.67
2023-05-14T22:27:30.482Z,3.60
2023-05-14T22:30:13.032Z,3.85
2023-05-14T22:32:55.374Z,3.65
2023-05-14T22:35:37.888Z,3.70
2023-05-14T22:38:20.426Z,3.20
2023-05-14T22:41:02.845Z,3.70
2023-05-14T22:43:45.068Z,3.60
2023-05-14T22:46:28.321Z,3.40
2023-05-14T22:49:10.698Z,3.45
2023-05-14T22:51:54.314Z,3.30
2023-05-14T22:54:36.692Z,3.33
2023-05-14T22:57:19.228Z,3.60
2023-05-14T23:00:01.463Z,3.47
2023-05-14T23:02:43.971Z,3.88
2023-05-14T23:05:26.658Z,3.42
2023-05-14T23:08:09.513Z,3.72
2023-05-14T23:10:52.524Z,3.88
2023-05-14T23:13:35.160Z,3.30
2023-05-14T23:16:17.537Z,3.78
2023-05-14T23:19:00.039Z,3.63
2023-05-14T23:21:42.371Z,3.75
2023-05-14T23:24:24.907Z,4.30
2023-05-14T23:27:07.356Z,3.70
2023-05-14T23:29:49.739Z,3.40
2023-05-14T23:32:31.950Z,3.70
2023-05-14T23:35:14.432Z,4.07
2023-05-14T23:37:56.758Z,4.30
2023-05-14T23:40:39.320Z,4.43
2023-05-14T23:43:21.580Z,4.13
2023-05-14T23:46:04.265Z,3.42
2023-05-14T23:48:46.416Z,4.10
2023-05-14T23:51:28.856Z,3.80
2023-05-14T23:54:11.826Z,4.47
2023-05-14T23:56:54.231Z,4.10
2023-05-14T23:59:36.469Z,4.13
